createdAt,value
2018-07-12T00:01:20.259Z,22.93
2018-07-12T00:03:46.767Z,22.80
2018-07-12T00:06:13.273Z,22.72
2018-07-12T00:08:45.918Z,22.77
2018-07-12T00:11:12.414Z,22.77
2018-07-12T00:13:38.881Z,22.78
2018-07-12T00:16:05.373Z,22.89
2018-07-12T00:18:31.857Z,22.86
2018-07-12T00:20:58.366Z,22.68
2018-07-12T00:23:24.833Z,22.70
2018-07-12T00:25:51.307Z,22.78
2018-07-12T00:28:17.802Z,22.85
2018-07-12T00:30:44.294Z,22.91
2018-07-12T00:33:10.865Z,22.85
2018-07-12T00:35:37.329Z,22.80
2018-07-12T00:38:03.800Z,22.78
2018-07-12T00:40:30.282Z,22.76
2018-07-12T00:42:56.774Z,22.74
2018-07-12T00:45:23.314Z,22.60
2018-07-12T00:47:50.094Z,22.55
2018-07-12T00:50:16.592Z,22.48
2018-07-12T00:52:43.074Z,22.46
2018-07-12T00:55:09.559Z,22.48
2018-07-12T00:57:36.060Z,22.46
2018-07-12T01:00:02.556Z,22.45
2018-07-12T01:02:29.059Z,22.43
2018-07-12T01:04:55.563Z,22.42
2018-07-12T01:07:22.053Z,22.40
2018-07-12T01:09:48.580Z,22.25
2018-07-12T01:12:15.071Z,22.15
2018-07-12T01:14:41.541Z,22.11
2018-07-12T01:17:08.006Z,22.08
2018-07-12T01:19:34.491Z,22.06
2018-07-12T01:22:01.066Z,21.96
2018-07-12T01:24:27.525Z,21.85
2018-07-12T01:26:53.998Z,21.83
2018-07-12T01:29:20.484Z,21.83
2018-07-12T01:31:46.976Z,21.76
2018-07-12T01:34:13.453Z,21.67
2018-07-12T01:36:39.929Z,21.60
2018-07-12T01:39:06.969Z,21.65
2018-07-12T01:41:33.482Z,21.65
2018-07-12T01:43:59.965Z,21.74
2018-07-12T01:46:26.437Z,21.77
2018-07-12T01:48:52.929Z,21.69
2018-07-12T01:51:19.402Z,21.69
2018-07-12T01:53:46.493Z,21.73
2018-07-12T01:56:12.983Z,21.83
2018-07-12T01:58:39.462Z,21.77
2018-07-12T02:01:05.960Z,22.01
2018-07-12T02:03:32.450Z,22.01
2018-07-12T02:05:58.974Z,22.03
2018-07-12T02:08:25.454Z,21.94
2018-07-12T02:10:51.925Z,21.90
2018-07-12T02:13:18.402Z,21.71
2018-07-12T02:15:44.869Z,21.89
2018-07-12T02:18:11.341Z,21.79
2018-07-12T02:20:37.805Z,21.84
2018-07-12T02:23:04.281Z,21.77
2018-07-12T02:25:30.754Z,21.67
2018-07-12T02:27:57.289Z,21.72
2018-07-12T02:30:23.753Z,21.72
2018-07-12T02:32:50.221Z,21.64
2018-07-12T02:35:16.752Z,21.60
2018-07-12T02:37:43.201Z,21.57
2018-07-12T02:40:09.677Z,21.58
2018-07-12T02:42:36.161Z,21.56
2018-07-12T02:45:02.641Z,21.53
2018-07-12T02:47:29.118Z,21.55
2018-07-12T02:49:55.625Z,21.49
2018-07-12T02:52:22.106Z,21.50
2018-07-12T02:54:48.577Z,21.57
2018-07-12T02:57:15.045Z,21.48
2018-07-12T02:59:41.517Z,21.45
2018-07-12T03:02:08.086Z,21.51
2018-07-12T03:04:34.577Z,22.29
2018-07-12T03:07:01.062Z,22.96
2018-07-12T03:09:27.549Z,23.38
2018-07-12T03:11:54.026Z,24.12
2018-07-12T03:14:20.541Z,25.24
2018-07-12T03:16:47.034Z,26.19
2018-07-12T03:19:13.528Z,27.05
2018-07-12T03:21:40.017Z,27.80
2018-07-12T03:24:06.506Z,28.54
2018-07-12T03:26:33.022Z,29.26
2018-07-12T03:28:59.498Z,29.30
2018-07-12T03:31:25.966Z,30.06
2018-07-12T03:33:52.442Z,31.14
2018-07-12T03:36:18.916Z,32.01
2018-07-12T03:38:45.426Z,32.95
2018-07-12T03:41:11.912Z,33.78
2018-07-12T03:43:38.382Z,34.34
2018-07-12T03:46:04.863Z,34.84
2018-07-12T03:48:31.338Z,35.41
2018-07-12T03:50:57.838Z,35.59
2018-07-12T03:53:24.307Z,36.00
2018-07-12T03:55:50.786Z,36.39
2018-07-12T03:58:17.244Z,35.93
2018-07-12T04:00:43.725Z,35.75
2018-07-12T04:03:10.222Z,36.01
2018-07-12T04:05:36.693Z,35.81
2018-07-12T04:08:03.231Z,35.97
2018-07-12T04:10:29.704Z,35.36
2018-07-12T04:12:56.198Z,36.02
2018-07-12T04:15:22.715Z,36.84
2018-07-12T04:17:49.193Z,37.46
2018-07-12T04:20:15.683Z,38.40
2018-07-12T04:22:42.203Z,38.95
2018-07-12T04:25:08.718Z,38.32
2018-07-12T04:27:35.228Z,38.45
2018-07-12T04:30:01.716Z,39.41
2018-07-12T04:32:28.237Z,39.58
2018-07-12T04:34:54.746Z,41.35
2018-07-12T04:37:21.224Z,40.22
2018-07-12T04:39:47.687Z,40.00
2018-07-12T04:42:14.152Z,38.36
2018-07-12T04:44:40.626Z,38.71
2018-07-12T04:47:07.126Z,39.90
2018-07-12T04:49:33.606Z,39.75
2018-07-12T04:52:00.695Z,37.94
2018-07-12T04:54:27.872Z,37.62
2018-07-12T04:56:54.342Z,37.52
2018-07-12T04:59:21.317Z,38.16
2018-07-12T05:01:48.231Z,38.78
2018-07-12T05:04:14.702Z,38.74
2018-07-12T05:06:41.209Z,39.31
2018-07-12T05:09:08.830Z,40.14
2018-07-12T05:11:35.333Z,41.08
2018-07-12T05:14:01.796Z,41.20
2018-07-12T05:16:28.333Z,41.07
2018-07-12T05:18:54.823Z,37.58
2018-07-12T05:21:21.303Z,37.83
2018-07-12T05:23:47.795Z,36.42
2018-07-12T05:26:14.283Z,36.39
2018-07-12T05:28:40.772Z,38.50
2018-07-12T05:31:07.843Z,37.78
2018-07-12T05:33:34.341Z,36.92
2018-07-12T05:36:09.414Z,37.03
2018-07-12T05:38:37.450Z,36.89
2018-07-12T05:41:05.266Z,34.43
2018-07-12T05:43:33.014Z,35.96
2018-07-12T05:46:00.747Z,36.18
2018-07-12T05:48:28.470Z,36.67
2018-07-12T05:50:56.344Z,36.93
2018-07-12T05:53:24.397Z,37.08
2018-07-12T05:55:52.258Z,37.65
2018-07-12T05:58:20.142Z,36.73
2018-07-12T06:00:47.990Z,36.22
2018-07-12T06:03:15.841Z,37.52
2018-07-12T06:05:43.709Z,37.02
2018-07-12T06:08:11.550Z,37.57
2018-07-12T06:10:39.391Z,36.65
2018-07-12T06:13:07.226Z,36.19
2018-07-12T06:15:35.794Z,37.76
2018-07-12T06:18:03.657Z,38.90
2018-07-12T06:20:31.493Z,38.67
2018-07-12T06:22:59.329Z,39.16
2018-07-12T06:25:27.183Z,40.08
2018-07-12T06:27:55.201Z,37.99
2018-07-12T06:30:23.093Z,35.35
2018-07-12T06:32:50.943Z,34.40
2018-07-12T06:35:18.781Z,34.18
2018-07-12T06:37:46.667Z,33.53
2018-07-12T06:40:14.534Z,33.62
2018-07-12T06:42:42.489Z,33.42
2018-07-12T06:45:10.278Z,33.74
2018-07-12T06:47:38.158Z,34.84
2018-07-12T06:50:06.004Z,35.05
2018-07-12T06:52:33.887Z,35.90
2018-07-12T06:55:01.758Z,35.39
2018-07-12T06:57:29.623Z,33.98
2018-07-12T06:59:57.533Z,33.96
2018-07-12T07:02:25.374Z,34.02
2018-07-12T07:04:53.232Z,34.64
2018-07-12T07:07:21.055Z,33.41
2018-07-12T07:09:48.934Z,32.77
2018-07-12T07:12:16.845Z,33.16
2018-07-12T07:14:44.734Z,32.73
2018-07-12T07:17:12.585Z,32.86
2018-07-12T07:19:40.484Z,33.39
2018-07-12T07:22:08.352Z,33.74
2018-07-12T07:24:36.219Z,34.54
2018-07-12T07:27:04.099Z,35.27
2018-07-12T07:29:31.962Z,34.56
2018-07-12T07:31:59.925Z,34.89
2018-07-12T07:34:27.802Z,35.07
2018-07-12T07:36:56.183Z,35.07
2018-07-12T07:39:24.027Z,35.49
2018-07-12T07:41:51.855Z,36.42
2018-07-12T07:44:19.742Z,35.67
2018-07-12T07:46:47.585Z,36.27
2018-07-12T07:49:15.443Z,35.45
2018-07-12T07:51:43.288Z,35.43
2018-07-12T07:54:11.121Z,36.71
2018-07-12T07:56:38.995Z,36.42
2018-07-12T07:59:06.854Z,35.32
2018-07-12T08:01:34.775Z,34.37
2018-07-12T08:04:02.699Z,35.73
2018-07-12T08:06:30.592Z,34.67
2018-07-12T08:08:58.427Z,35.24
2018-07-12T08:11:26.327Z,36.00
2018-07-12T08:13:54.210Z,36.76
2018-07-12T08:16:22.172Z,36.09
2018-07-12T08:18:49.996Z,35.73
2018-07-12T08:21:17.937Z,34.89
2018-07-12T08:23:46.493Z,34.29
2018-07-12T08:26:14.321Z,32.81
2018-07-12T08:28:42.230Z,33.37
2018-07-12T08:31:10.134Z,34.77
2018-07-12T08:33:37.973Z,34.78
2018-07-12T08:36:06.045Z,33.00
2018-07-12T08:38:33.907Z,33.84
2018-07-12T08:41:01.768Z,34.81
2018-07-12T08:43:29.637Z,35.16
2018-07-12T08:45:57.505Z,34.72
2018-07-12T08:48:25.716Z,35.01
2018-07-12T08:50:53.538Z,34.00
2018-07-12T08:53:21.374Z,33.73
2018-07-12T08:55:49.238Z,33.03
2018-07-12T08:58:17.734Z,33.17
2018-07-12T09:00:45.629Z,33.89
2018-07-12T09:03:15.306Z,34.51
2018-07-12T09:05:43.174Z,35.23
2018-07-12T09:08:11.019Z,33.29
2018-07-12T09:10:38.924Z,32.89
2018-07-12T09:13:06.785Z,33.27
2018-07-12T09:15:34.775Z,33.71
2018-07-12T09:18:02.578Z,34.09
2018-07-12T09:20:30.422Z,34.67
2018-07-12T09:22:58.271Z,33.94
2018-07-12T09:25:26.236Z,33.71
2018-07-12T09:27:54.078Z,33.53
2018-07-12T09:30:21.905Z,33.54
2018-07-12T09:32:49.721Z,34.41
2018-07-12T09:35:17.546Z,32.99
2018-07-12T09:37:45.381Z,33.75
2018-07-12T09:40:13.242Z,34.12
2018-07-12T09:42:41.145Z,34.60
2018-07-12T09:45:08.985Z,35.36
2018-07-12T09:47:36.981Z,34.63
2018-07-12T09:50:04.790Z,33.66
2018-07-12T09:52:33.456Z,33.55
2018-07-12T09:55:01.742Z,33.18
2018-07-12T09:57:41.341Z,33.43
2018-07-12T10:00:09.238Z,34.32
2018-07-12T10:02:42.739Z,33.81
2018-07-12T10:05:16.133Z,34.57
2018-07-12T10:07:49.981Z,34.39
2018-07-12T10:10:19.330Z,35.55
2018-07-12T10:12:52.879Z,34.69
2018-07-12T10:15:26.245Z,34.30
2018-07-12T10:17:59.577Z,35.21
2018-07-12T10:20:27.519Z,35.89
2018-07-12T10:22:55.422Z,35.88
2018-07-12T10:25:23.348Z,34.77
2018-07-12T10:27:51.180Z,35.24
2018-07-12T10:30:19.043Z,35.27
2018-07-12T10:32:46.889Z,34.09
2018-07-12T10:35:14.727Z,33.12
2018-07-12T10:37:42.589Z,33.05
2018-07-12T10:40:10.694Z,34.05
2018-07-12T10:42:38.543Z,35.47
2018-07-12T10:45:06.561Z,36.20
2018-07-12T10:47:34.595Z,33.98
2018-07-12T10:50:02.506Z,34.55
2018-07-12T10:52:30.440Z,35.50
2018-07-12T10:54:58.406Z,35.99
2018-07-12T10:57:26.351Z,36.89
2018-07-12T10:59:54.253Z,37.46
2018-07-12T11:02:22.177Z,37.40
2018-07-12T11:04:50.149Z,36.27
2018-07-12T11:07:18.147Z,35.48
2018-07-12T11:09:46.120Z,36.22
2018-07-12T11:12:14.009Z,37.32
2018-07-12T11:14:41.862Z,36.94
2018-07-12T11:17:09.698Z,37.97
2018-07-12T11:19:37.940Z,37.01
2018-07-12T11:22:06.032Z,35.96
2018-07-12T11:24:33.907Z,34.81
2018-07-12T11:27:01.730Z,34.87
2018-07-12T11:29:40.968Z,35.32
2018-07-12T11:32:08.785Z,36.79
2018-07-12T11:34:36.747Z,36.77
2018-07-12T11:37:04.661Z,36.85
2018-07-12T11:39:32.531Z,34.86
2018-07-12T11:42:00.383Z,35.17
2018-07-12T11:44:29.779Z,35.50
2018-07-12T11:46:57.665Z,35.70
2018-07-12T11:49:25.503Z,35.46
2018-07-12T11:51:53.365Z,35.19
2018-07-12T11:54:21.231Z,35.65
2018-07-12T11:56:49.114Z,36.78
2018-07-12T11:59:16.953Z,36.95
2018-07-12T12:01:44.879Z,35.97
2018-07-12T12:04:12.751Z,36.09
2018-07-12T12:06:40.621Z,37.43
2018-07-12T12:09:08.510Z,37.18
2018-07-12T12:11:36.357Z,36.42
2018-07-12T12:14:04.255Z,36.30
2018-07-12T12:16:32.107Z,37.64
2018-07-12T12:18:59.992Z,37.42
2018-07-12T12:21:27.842Z,36.52
2018-07-12T12:23:55.702Z,36.15
2018-07-12T12:26:23.587Z,36.35
2018-07-12T12:28:51.453Z,35.13
2018-07-12T12:31:19.350Z,36.51
2018-07-12T12:33:47.233Z,34.77
2018-07-12T12:36:15.083Z,35.51
2018-07-12T12:38:42.939Z,36.68
2018-07-12T12:41:10.801Z,37.21
2018-07-12T12:43:38.641Z,37.72
2018-07-12T12:46:06.475Z,37.51
2018-07-12T12:48:34.322Z,36.91
2018-07-12T12:51:02.156Z,37.10
2018-07-12T12:53:30.878Z,36.74
2018-07-12T12:55:58.773Z,36.99
2018-07-12T12:58:26.645Z,36.85
2018-07-12T13:00:54.449Z,37.51
2018-07-12T13:03:22.301Z,36.18
2018-07-12T13:05:50.150Z,36.65
2018-07-12T13:08:18.083Z,37.04
2018-07-12T13:10:46.041Z,37.16
2018-07-12T13:13:13.893Z,37.38
2018-07-12T13:15:41.781Z,36.57
2018-07-12T13:18:09.623Z,36.77
2018-07-12T13:20:37.481Z,36.99
2018-07-12T13:23:05.343Z,36.80
2018-07-12T13:25:33.315Z,37.89
2018-07-12T13:28:01.157Z,37.25
2018-07-12T13:30:29.009Z,38.23
2018-07-12T13:32:57.210Z,37.13
2018-07-12T13:35:25.045Z,37.45
2018-07-12T13:37:52.906Z,37.25
2018-07-12T13:40:20.837Z,37.54
2018-07-12T13:42:48.703Z,37.80
2018-07-12T13:45:16.558Z,38.04
2018-07-12T13:47:44.421Z,36.90
2018-07-12T13:50:12.323Z,36.86
2018-07-12T13:52:40.195Z,35.59
2018-07-12T13:55:08.104Z,35.70
2018-07-12T13:57:35.943Z,36.63
2018-07-12T14:00:04.019Z,36.80
2018-07-12T14:02:31.940Z,36.58
2018-07-12T14:04:59.851Z,36.68
2018-07-12T14:07:27.696Z,36.68
2018-07-12T14:09:56.018Z,36.82
2018-07-12T14:12:24.278Z,36.81
2018-07-12T14:14:52.154Z,36.07
2018-07-12T14:17:20.055Z,35.82
2018-07-12T14:19:47.947Z,35.58
2018-07-12T14:22:15.799Z,35.36
2018-07-12T14:24:43.641Z,35.81
2018-07-12T14:27:11.516Z,35.42
2018-07-12T14:29:39.358Z,35.18
2018-07-12T14:32:07.228Z,36.20
2018-07-12T14:34:35.142Z,36.97
2018-07-12T14:37:02.986Z,37.35
2018-07-12T14:39:30.835Z,37.11
2018-07-12T14:41:58.679Z,36.62
2018-07-12T14:44:26.547Z,36.43
2018-07-12T14:46:54.449Z,35.28
2018-07-12T14:49:22.305Z,35.88
2018-07-12T14:51:50.135Z,36.19
2018-07-12T14:54:18.018Z,36.38
2018-07-12T14:56:45.872Z,36.36
2018-07-12T14:59:13.812Z,36.08
2018-07-12T15:01:41.660Z,36.68
2018-07-12T15:04:09.704Z,36.32
2018-07-12T15:06:37.604Z,36.72
2018-07-12T15:09:07.087Z,35.79
2018-07-12T15:11:34.871Z,35.90
2018-07-12T15:14:02.827Z,36.49
2018-07-12T15:16:30.729Z,35.91
2018-07-12T15:18:58.598Z,36.56
2018-07-12T15:21:26.484Z,37.07
2018-07-12T15:23:54.363Z,37.01
2018-07-12T15:26:22.318Z,37.27
2018-07-12T15:28:50.286Z,37.10
2018-07-12T15:31:18.125Z,36.36
2018-07-12T15:33:45.961Z,35.61
2018-07-12T15:36:14.195Z,36.03
2018-07-12T15:38:42.123Z,36.66
2018-07-12T15:41:09.986Z,37.07
2018-07-12T15:43:37.925Z,37.16
2018-07-12T15:46:05.798Z,37.34
2018-07-12T15:48:33.686Z,36.42
2018-07-12T15:51:01.603Z,35.89
2018-07-12T15:53:29.784Z,35.81
2018-07-12T15:55:57.653Z,35.36
2018-07-12T15:58:25.550Z,35.36
2018-07-12T16:00:53.394Z,35.78
2018-07-12T16:03:21.516Z,35.73
2018-07-12T16:05:49.424Z,35.49
2018-07-12T16:08:17.296Z,36.00
2018-07-12T16:10:45.167Z,36.33
2018-07-12T16:13:13.022Z,35.65
2018-07-12T16:15:40.942Z,35.73
2018-07-12T16:18:08.798Z,35.33
2018-07-12T16:20:36.649Z,35.43
2018-07-12T16:23:04.558Z,35.35
2018-07-12T16:25:32.402Z,35.26
2018-07-12T16:28:00.243Z,34.82
2018-07-12T16:30:28.093Z,34.62
2018-07-12T16:32:55.918Z,34.41
2018-07-12T16:35:23.790Z,33.69
2018-07-12T16:37:51.654Z,33.57
2018-07-12T16:40:19.552Z,33.63
2018-07-12T16:42:47.431Z,33.52
2018-07-12T16:45:15.310Z,33.66
2018-07-12T16:47:43.164Z,33.32
2018-07-12T16:50:11.083Z,33.23
2018-07-12T16:52:38.958Z,33.12
2018-07-12T16:55:06.837Z,33.15
2018-07-12T16:57:34.683Z,33.12
2018-07-12T17:00:02.630Z,33.05
2018-07-12T17:02:30.491Z,33.09
2018-07-12T17:04:58.380Z,33.27
2018-07-12T17:07:26.246Z,32.75
2018-07-12T17:09:54.119Z,32.68
2018-07-12T17:12:22.018Z,32.63
2018-07-12T17:14:49.918Z,32.09
2018-07-12T17:17:17.831Z,31.76
2018-07-12T17:19:45.767Z,31.53
2018-07-12T17:22:13.642Z,31.49
2018-07-12T17:24:41.543Z,31.19
2018-07-12T17:27:09.405Z,31.03
2018-07-12T17:29:37.229Z,30.88
2018-07-12T17:32:05.193Z,30.91
2018-07-12T17:34:33.379Z,30.81
2018-07-12T17:37:01.289Z,30.70
2018-07-12T17:39:29.168Z,30.52
2018-07-12T17:41:57.021Z,30.43
2018-07-12T17:44:24.898Z,30.32
2018-07-12T17:46:52.766Z,30.22
2018-07-12T17:49:20.948Z,30.10
2018-07-12T17:51:48.807Z,29.92
2018-07-12T17:54:16.704Z,29.63
2018-07-12T17:56:44.526Z,29.34
2018-07-12T17:59:13.176Z,29.16
2018-07-12T18:01:41.232Z,28.93
2018-07-12T18:04:09.121Z,28.73
2018-07-12T18:06:37.536Z,28.67
2018-07-12T18:09:06.516Z,28.62
2018-07-12T18:11:34.474Z,28.59
2018-07-12T18:14:02.339Z,28.52
2018-07-12T18:16:30.196Z,28.25
2018-07-12T18:18:58.041Z,28.03
2018-07-12T18:21:25.918Z,28.08
2018-07-12T18:23:53.753Z,27.98
2018-07-12T18:26:21.591Z,27.97
2018-07-12T18:28:49.407Z,27.99
2018-07-12T18:31:17.577Z,28.05
2018-07-12T18:33:45.610Z,28.01
2018-07-12T18:36:13.470Z,27.97
2018-07-12T18:38:41.313Z,27.82
2018-07-12T18:41:09.223Z,27.72
2018-07-12T18:43:37.133Z,27.56
2018-07-12T18:46:05.190Z,27.47
2018-07-12T18:48:33.064Z,27.44
2018-07-12T18:51:00.920Z,27.54
2018-07-12T18:53:28.758Z,27.68
2018-07-12T18:55:56.640Z,27.79
2018-07-12T18:58:24.511Z,27.62
2018-07-12T19:00:52.377Z,27.62
2018-07-12T19:03:20.247Z,27.76
2018-07-12T19:05:48.093Z,27.80
2018-07-12T19:08:15.924Z,27.77
2018-07-12T19:10:43.763Z,27.75
2018-07-12T19:13:11.782Z,27.73
2018-07-12T19:15:39.657Z,27.70
2018-07-12T19:18:07.536Z,27.67
2018-07-12T19:20:35.439Z,27.57
2018-07-12T19:23:03.314Z,27.40
2018-07-12T19:25:31.182Z,27.41
2018-07-12T19:27:59.084Z,27.37
2018-07-12T19:30:26.943Z,27.53
2018-07-12T19:32:54.780Z,27.61
2018-07-12T19:35:22.722Z,27.65
2018-07-12T19:37:50.557Z,27.62
2018-07-12T19:40:18.415Z,27.66
2018-07-12T19:42:46.237Z,27.68
2018-07-12T19:45:14.073Z,27.71
2018-07-12T19:47:41.892Z,27.73
2018-07-12T19:50:09.760Z,27.73
2018-07-12T19:52:37.632Z,27.74
2018-07-12T19:55:05.539Z,27.69
2018-07-12T19:57:33.445Z,27.69
2018-07-12T20:00:01.270Z,27.68
2018-07-12T20:02:29.239Z,27.64
2018-07-12T20:04:57.151Z,27.46
2018-07-12T20:07:24.982Z,27.49
2018-07-12T20:09:52.850Z,27.53
2018-07-12T20:12:20.689Z,27.53
2018-07-12T20:14:48.559Z,27.59
2018-07-12T20:17:16.447Z,27.54
2018-07-12T20:19:44.288Z,27.47
2018-07-12T20:22:12.784Z,27.42
2018-07-12T20:24:40.628Z,27.30
2018-07-12T20:27:08.521Z,27.16
2018-07-12T20:29:36.407Z,26.87
2018-07-12T20:32:04.291Z,26.81
2018-07-12T20:34:32.148Z,26.72
2018-07-12T20:37:00.028Z,26.85
2018-07-12T20:39:27.915Z,26.91
2018-07-12T20:41:55.818Z,26.88
2018-07-12T20:44:23.707Z,26.92
2018-07-12T20:46:51.518Z,27.04
2018-07-12T20:49:19.343Z,26.88
2018-07-12T20:51:47.211Z,26.90
2018-07-12T20:54:15.149Z,26.80
2018-07-12T20:56:42.981Z,26.75
2018-07-12T20:59:10.809Z,26.64
2018-07-12T21:01:38.694Z,26.68
2018-07-12T21:04:06.532Z,26.83
2018-07-12T21:06:34.354Z,26.86
2018-07-12T21:09:02.235Z,26.86
2018-07-12T21:11:30.082Z,26.76
2018-07-12T21:13:57.910Z,26.55
2018-07-12T21:16:25.803Z,26.53
2018-07-12T21:18:53.618Z,26.18
2018-07-12T21:21:21.461Z,25.99
2018-07-12T21:23:49.379Z,26.00
2018-07-12T21:26:17.194Z,25.79
2018-07-12T21:28:45.034Z,25.84
2018-07-12T21:31:12.966Z,25.87
2018-07-12T21:33:40.873Z,25.64
2018-07-12T21:36:08.703Z,25.65
2018-07-12T21:38:36.530Z,25.60
2018-07-12T21:41:04.445Z,25.71
2018-07-12T21:43:32.297Z,26.01
2018-07-12T21:46:00.143Z,25.82
2018-07-12T21:48:27.998Z,25.87
2018-07-12T21:50:55.862Z,25.85
2018-07-12T21:53:23.777Z,25.89
2018-07-12T21:55:51.629Z,25.82
2018-07-12T21:58:19.498Z,25.78
2018-07-12T22:00:47.335Z,25.78
2018-07-12T22:03:15.242Z,25.80
2018-07-12T22:05:43.159Z,25.82
2018-07-12T22:08:12.842Z,25.60
2018-07-12T22:10:41.529Z,25.65
2018-07-12T22:13:10.017Z,25.72
2018-07-12T22:15:37.913Z,25.66
2018-07-12T22:18:06.072Z,25.48
2018-07-12T22:20:33.936Z,25.38
2018-07-12T22:23:01.986Z,25.58
2018-07-12T22:25:29.905Z,25.49
2018-07-12T22:27:57.934Z,25.46
2018-07-12T22:30:26.338Z,25.44
2018-07-12T22:32:54.216Z,25.40
2018-07-12T22:35:22.053Z,25.61
2018-07-12T22:37:49.946Z,25.62
2018-07-12T22:40:17.813Z,25.86
2018-07-12T22:42:45.668Z,25.83
2018-07-12T22:45:13.642Z,25.49
2018-07-12T22:47:41.466Z,25.38
2018-07-12T22:50:09.340Z,25.28
2018-07-12T22:52:37.190Z,25.51
2018-07-12T22:55:05.066Z,25.41
2018-07-12T22:57:32.894Z,25.59
2018-07-12T23:00:00.723Z,25.73
2018-07-12T23:02:28.584Z,25.51
2018-07-12T23:04:56.466Z,25.40
2018-07-12T23:07:24.343Z,25.22
2018-07-12T23:09:52.186Z,25.38
2018-07-12T23:12:20.038Z,25.36
2018-07-12T23:14:47.978Z,25.45
2018-07-12T23:17:15.823Z,25.14
2018-07-12T23:19:43.638Z,25.24
2018-07-12T23:22:11.489Z,25.25
2018-07-12T23:24:39.403Z,25.34
2018-07-12T23:27:07.205Z,25.18
2018-07-12T23:29:35.099Z,25.14
2018-07-12T23:32:02.992Z,25.05
2018-07-12T23:34:31.027Z,24.94
2018-07-12T23:36:59.239Z,25.08
2018-07-12T23:39:27.384Z,25.08
2018-07-12T23:41:55.455Z,25.23
2018-07-12T23:44:23.304Z,25.06
2018-07-12T23:46:51.387Z,24.82
2018-07-12T23:49:19.459Z,24.91
2018-07-12T23:51:47.329Z,25.03
2018-07-12T23:54:15.207Z,25.04
2018-07-12T23:56:43.133Z,25.11
2018-07-12T23:59:10.937Z,25.17
